createdAt,value
2022-09-09T00:00:28.180Z,2.65
2022-09-09T00:05:37.389Z,2.10
2022-09-09T00:10:40.618Z,2.58
2022-09-09T00:15:55.829Z,3.13
2022-09-09T00:21:13.883Z,2.70
2022-09-09T00:26:39.665Z,2.78
2022-09-09T00:31:41.583Z,2.90
2022-09-09T00:36:45.349Z,2.83
2022-09-09T00:42:09.378Z,2.80
2022-09-09T00:47:31.447Z,2.80
2022-09-09T00:52:55.594Z,2.13
2022-09-09T00:57:57.381Z,2.35
2022-09-09T01:03:36.824Z,2.55
2022-09-09T01:09:09.642Z,2.97
2022-09-09T01:14:26.378Z,2.45
2022-09-09T01:19:46.875Z,2.60
2022-09-09T01:25:29.945Z,2.67
2022-09-09T01:30:42.995Z,2.55
2022-09-09T01:36:03.086Z,2.50
2022-09-09T01:41:10.563Z,2.35
2022-09-09T01:46:23.930Z,2.37
2022-09-09T01:51:26.414Z,2.30
2022-09-09T01:56:49.889Z,2.07
2022-09-09T02:02:14.591Z,2.50
2022-09-09T02:07:41.623Z,2.45
2022-09-09T02:13:24.547Z,2.42
2022-09-09T02:18:46.015Z,2.38
2022-09-09T02:23:53.003Z,2.15
2022-09-09T02:28:58.923Z,2.90
2022-09-09T02:34:02.603Z,3.22
2022-09-09T02:39:07.304Z,2.92
2022-09-09T02:44:20.163Z,2.95
2022-09-09T02:49:34.783Z,3.50
2022-09-09T02:54:42.040Z,2.90
2022-09-09T02:59:48.180Z,3.00
2022-09-09T03:04:52.751Z,3.10
2022-09-09T03:09:55.900Z,2.92
2022-09-09T03:15:00.524Z,2.65
2022-09-09T03:20:06.494Z,3.10
2022-09-09T03:25:09.255Z,2.90
2022-09-09T03:30:12.050Z,2.60
2022-09-09T03:35:13.917Z,3.05
2022-09-09T03:40:15.929Z,3.08
2022-09-09T03:45:21.041Z,2.80
2022-09-09T03:50:23.007Z,3.20
2022-09-09T03:55:24.677Z,3.58
2022-09-09T04:00:27.599Z,3.55
2022-09-09T04:05:29.684Z,2.03
2022-09-09T04:10:32.499Z,2.50
2022-09-09T04:15:36.554Z,2.35
2022-09-09T04:20:39.901Z,2.53
2022-09-09T04:25:47.768Z,2.92
2022-09-09T04:30:50.185Z,2.63
2022-09-09T04:35:54.666Z,2.85
2022-09-09T04:40:58.455Z,3.10
2022-09-09T04:46:00.970Z,2.78
2022-09-09T04:51:10.255Z,2.80
2022-09-09T04:56:14.847Z,2.80
2022-09-09T05:01:23.125Z,2.05
2022-09-09T05:06:26.335Z,2.40
2022-09-09T05:11:33.333Z,2.55
2022-09-09T05:16:54.862Z,2.20
2022-09-09T05:21:58.092Z,2.85
2022-09-09T05:27:07.895Z,2.85
2022-09-09T05:32:15.171Z,2.80
2022-09-09T05:37:19.301Z,2.60
2022-09-09T05:42:21.100Z,2.22
2022-09-09T05:47:22.793Z,1.70
2022-09-09T05:52:26.602Z,2.30
2022-09-09T05:57:28.534Z,2.00
2022-09-09T06:02:30.928Z,1.70
2022-09-09T06:07:32.940Z,1.80
2022-09-09T06:12:34.624Z,1.90
2022-09-09T06:22:41.727Z,3.53
2022-09-09T06:27:43.525Z,3.45
2022-09-09T06:32:46.114Z,2.88
2022-09-09T06:37:49.758Z,3.57
2022-09-09T06:42:54.063Z,4.00
2022-09-09T06:48:14.187Z,4.57
2022-09-09T06:53:18.391Z,4.25
2022-09-09T06:58:20.202Z,4.82
2022-09-09T07:03:22.159Z,5.23
2022-09-09T07:08:25.757Z,5.50
2022-09-09T07:13:28.245Z,5.57
2022-09-09T07:18:31.762Z,4.35
2022-09-09T07:23:36.271Z,3.70
2022-09-09T07:28:39.293Z,4.90
2022-09-09T07:33:41.884Z,5.13
2022-09-09T07:38:52.180Z,4.40
2022-09-09T07:43:56.124Z,4.50
2022-09-09T07:48:59.121Z,3.78
2022-09-09T07:54:10.279Z,4.88
2022-09-09T07:59:14.651Z,4.60
2022-09-09T08:04:20.213Z,4.80
2022-09-09T08:09:26.108Z,5.35
2022-09-09T08:14:28.245Z,5.47
2022-09-09T08:19:34.930Z,6.55
2022-09-09T08:24:37.310Z,6.28
2022-09-09T08:29:39.059Z,5.80
2022-09-09T08:34:46.547Z,4.07
2022-09-09T08:39:54.433Z,5.60
2022-09-09T08:45:22.126Z,4.50
2022-09-09T08:50:32.091Z,4.25
2022-09-09T08:56:00.249Z,4.50
2022-09-09T09:06:55.861Z,3.78
2022-09-09T09:12:03.509Z,3.17
2022-09-09T09:22:48.702Z,1.60
2022-09-09T09:28:12.843Z,1.80
2022-09-09T09:33:53.852Z,1.42
2022-09-09T09:44:31.881Z,1.60
2022-09-09T09:50:02.135Z,1.00
2022-09-09T09:55:15.298Z,0.80
2022-09-09T10:00:23.083Z,1.30
2022-09-09T10:05:36.825Z,1.48
2022-09-09T10:11:06.803Z,1.42
2022-09-09T10:16:21.905Z,1.30
2022-09-09T10:21:33.344Z,1.10
2022-09-09T10:26:46.400Z,1.00
2022-09-09T10:32:05.424Z,1.08
2022-09-09T10:37:26.382Z,1.77
2022-09-09T10:42:32.454Z,1.15
2022-09-09T10:47:45.600Z,1.10
2022-09-09T10:53:03.588Z,1.10
2022-09-09T10:58:08.408Z,1.30
2022-09-09T11:03:20.900Z,1.33
2022-09-09T11:08:30.983Z,1.50
2022-09-09T11:13:52.528Z,1.73
2022-09-09T11:19:04.254Z,1.38
2022-09-09T11:24:14.241Z,1.47
2022-09-09T11:29:41.827Z,1.48
2022-09-09T11:34:56.228Z,1.80
2022-09-09T11:40:20.185Z,1.80
2022-09-09T11:45:26.773Z,1.58
2022-09-09T11:50:31.419Z,1.38
2022-09-09T11:55:35.670Z,1.70
2022-09-09T12:00:41.282Z,1.65
2022-09-09T12:05:46.935Z,1.73
2022-09-09T12:10:58.125Z,1.40
2022-09-09T12:16:01.711Z,1.73
2022-09-09T12:21:13.311Z,1.60
2022-09-09T12:26:32.068Z,1.50
2022-09-09T12:31:48.542Z,1.48
2022-09-09T12:37:07.306Z,1.40
2022-09-09T12:42:23.281Z,1.30
2022-09-09T12:47:35.996Z,1.42
2022-09-09T12:52:39.849Z,1.10
2022-09-09T12:57:41.574Z,1.73
2022-09-09T13:02:48.877Z,1.27
2022-09-09T13:07:51.002Z,1.30
2022-09-09T13:12:52.586Z,1.58
2022-09-09T13:17:58.157Z,0.98
2022-09-09T13:22:59.923Z,1.40
2022-09-09T13:28:04.844Z,1.40
2022-09-09T13:33:13.143Z,1.40
2022-09-09T13:38:16.270Z,1.40
2022-09-09T13:43:22.773Z,1.20
2022-09-09T13:48:25.617Z,1.45
2022-09-09T13:53:27.795Z,1.10
2022-09-09T13:58:30.099Z,1.15
2022-09-09T14:03:31.884Z,1.30
2022-09-09T14:08:38.098Z,1.20
2022-09-09T14:13:40.141Z,1.40
2022-09-09T14:18:41.836Z,1.60
2022-09-09T14:23:43.629Z,1.13
2022-09-09T14:28:54.721Z,1.13
2022-09-09T14:33:57.140Z,1.30
2022-09-09T14:38:59.457Z,1.10
2022-09-09T14:44:01.289Z,0.93
2022-09-09T14:49:03.085Z,1.02
2022-09-09T14:54:05.028Z,1.30
2022-09-09T14:59:06.681Z,1.25
2022-09-09T15:04:08.691Z,1.50
2022-09-09T15:09:10.779Z,0.90
2022-09-09T15:14:13.139Z,1.10
2022-09-09T15:19:14.859Z,1.00
2022-09-09T15:24:17.049Z,1.10
2022-09-09T15:29:19.887Z,1.40
2022-09-09T15:34:22.359Z,1.10
2022-09-09T15:39:24.054Z,1.10
2022-09-09T15:44:26.435Z,1.17
2022-09-09T15:49:28.793Z,1.05
2022-09-09T15:59:36.843Z,0.80
2022-09-09T16:04:38.566Z,0.63
2022-09-09T16:09:40.632Z,0.70
2022-09-09T16:14:42.367Z,0.57
2022-09-09T16:19:44.396Z,0.77
2022-09-09T16:24:46.105Z,0.95
2022-09-09T16:29:47.819Z,0.70
2022-09-09T16:34:49.437Z,0.90
2022-09-09T16:39:52.037Z,0.95
2022-09-09T16:49:55.444Z,1.20
2022-09-09T16:54:57.253Z,1.40
2022-09-09T17:00:00.272Z,1.00
2022-09-09T17:05:01.998Z,1.20
2022-09-09T17:10:03.980Z,1.20
2022-09-09T17:15:06.791Z,1.10
2022-09-09T17:25:11.489Z,1.15
2022-09-09T17:30:13.554Z,0.93
2022-09-09T17:35:15.261Z,1.10
2022-09-09T17:40:17.000Z,1.10
2022-09-09T17:45:18.982Z,1.17
2022-09-09T17:50:20.571Z,1.40
2022-09-09T17:55:22.358Z,1.45
2022-09-09T18:00:24.343Z,1.42
2022-09-09T18:05:26.029Z,1.70
2022-09-09T18:10:28.246Z,1.37
2022-09-09T18:15:48.654Z,1.50
2022-09-09T18:21:08.565Z,1.55
2022-09-09T18:26:13.477Z,2.00
2022-09-09T18:31:17.083Z,1.70
2022-09-09T18:36:22.758Z,1.60
2022-09-09T18:41:28.435Z,1.80
2022-09-09T18:46:33.009Z,1.30
2022-09-09T18:51:36.958Z,1.75
2022-09-09T18:56:39.092Z,1.45
2022-09-09T19:01:41.134Z,1.80
2022-09-09T19:06:46.427Z,1.80
2022-09-09T19:11:48.034Z,1.50
2022-09-09T19:16:49.952Z,1.90
2022-09-09T19:21:51.983Z,1.67
2022-09-09T19:26:57.883Z,1.92
2022-09-09T19:32:36.841Z,1.92
2022-09-09T19:37:24.159Z,1.55
2022-09-09T19:42:25.836Z,1.80
2022-09-09T19:47:28.068Z,1.50
2022-09-09T19:52:55.762Z,1.50
2022-09-09T19:57:57.445Z,1.85
2022-09-09T20:03:18.007Z,1.60
2022-09-09T20:08:20.633Z,1.45
2022-09-09T20:13:22.748Z,1.60
2022-09-09T20:18:27.843Z,2.03
2022-09-09T20:23:30.412Z,1.60
2022-09-09T20:28:35.554Z,1.38
2022-09-09T20:33:38.393Z,1.70
2022-09-09T20:43:49.439Z,1.75
2022-09-09T20:48:51.929Z,1.80
2022-09-09T20:53:56.953Z,1.85
2022-09-09T20:58:58.799Z,1.65
2022-09-09T21:04:00.563Z,2.60
2022-09-09T21:09:03.083Z,1.60
2022-09-09T21:14:04.962Z,1.70
2022-09-09T21:19:06.800Z,1.63
2022-09-09T21:24:09.781Z,1.53
2022-09-09T21:34:15.308Z,1.50
2022-09-09T21:39:17.035Z,1.92
2022-09-09T21:44:19.182Z,2.08
2022-09-09T21:49:21.452Z,1.75
2022-09-09T21:54:23.089Z,1.60
2022-09-09T21:59:26.914Z,1.95
2022-09-09T22:04:28.756Z,1.50
2022-09-09T22:09:30.570Z,2.00
2022-09-09T22:14:33.130Z,1.58
2022-09-09T22:19:34.949Z,1.58
2022-09-09T22:24:38.394Z,1.60
2022-09-09T22:29:40.507Z,1.42
2022-09-09T22:34:42.197Z,1.90
2022-09-09T22:39:43.955Z,1.80
2022-09-09T22:44:45.640Z,1.58
2022-09-09T22:49:47.277Z,1.70
2022-09-09T22:54:49.032Z,1.38
2022-09-09T22:59:50.679Z,1.65
2022-09-09T23:04:52.350Z,1.80
2022-09-09T23:09:54.051Z,1.60
2022-09-09T23:14:56.791Z,1.70
2022-09-09T23:19:58.465Z,1.55
2022-09-09T23:25:01.680Z,1.60
2022-09-09T23:30:04.627Z,2.10
2022-09-09T23:35:07.391Z,1.30
2022-09-09T23:40:09.534Z,1.73
2022-09-09T23:45:11.175Z,1.43
2022-09-09T23:50:12.962Z,1.38
2022-09-09T23:55:14.748Z,1.42
